Date,TemperatureHighF,TemperatureAvgF,TemperatureLowF,DewpointHighF,DewpointAvgF,DewpointLowF,HumidityHigh,HumidityAvg,HumidityLow,PressureMaxIn,PressureMinIn,WindSpeedMaxMPH,WindSpeedAvgMPH,GustSpeedMaxMPH,PrecipitationSumIn
2013-1-1,25,21,18,16,13,11,83,70,60,30.18,30.07,15,4,18,0.00
2013-1-2,28,23,19,22,17,12,88,78,73,30.20,30.07,17,6,17,0.00
2013-1-3,30,27,22,24,22,18,89,83,73,30.16,30.00,22,9,22,0.00
2013-1-4,33,28,26,24,22,20,87,78,68,30.15,29.90,27,12,29,0.00
2013-1-5,32,28,18,31,25,14,97,90,80,30.28,29.95,17,6,17,0.00
2013-1-6,34,32,28,33,30,23,98,94,79,30.28,29.86,16,4,16,0.13
2013-1-7,34,31,28,28,26,23,89,81,70,30.33,30.05,36,12,36,0.00
2013-1-8,34,31,27,31,28,25,94,89,82,30.23,30.08,19,7,19,0.00
2013-1-9,44,37,30,34,30,27,91,76,55,30.43,29.90,29,13,38,0.00
2013-1-10,38,32,26,35,29,23,91,86,77,30.59,30.25,16,4,16,0.00
2013-1-11,45,37,34,44,36,32,99,96,89,30.25,29.73,25,6,25,0.60
2013-1-12,53,41,36,43,35,30,98,82,43,29.97,29.78,33,6,33,0.00
2013-1-13,42,36,30,36,34,27,97,93,67,29.99,29.82,13,2,13,0.41
2013-1-14,29,23,18,27,18,14,91,79,66,30.43,29.98,16,6,16,0.06
2013-1-15,27,22,14,21,17,12,89,80,69,30.44,30.18,21,8,24,0.00
2013-1-16,33,28,21,27,23,18,88,84,76,30.18,29.72,25,10,25,0.00
2013-1-17,29,19,10,24,12,6,83,74,64,30.36,29.95,15,3,15,0.00
2013-1-18,34,20,8,29,15,4,92,83,72,30.45,29.87,29,10,29,0.00
2013-1-19,38,35,32,36,31,27,95,87,79,29.88,29.45,56,10,56,0.04
2013-1-20,33,19,12,31,12,4,93,75,57,30.19,29.44,31,8,32,0.03
2013-1-21,14,10,3,9,3,-4,86,73,55,30.17,29.95,17,7,22,0.00
2013-1-22,9,3,-1,-2,-5,-8,75,67,50,30.32,30.10,20,6,24,0.00
2013-1-23,14,9,2,10,4,-4,87,79,65,30.32,30.13,19,5,19,0.00
2013-1-24,18,10,5,7,3,-1,86,72,45,30.66,30.22,10,2,10,0.00
2013-1-25,20,16,9,18,12,3,91,84,67,30.56,30.07,17,9,17,0.00
2013-1-26,30,20,11,22,16,8,92,81,62,30.48,30.10,12,2,12,0.04
2013-1-27,28,23,10,26,20,7,96,86,73,30.51,30.20,23,9,28,0.02
2013-1-28,36,33,27,35,32,26,98,97,92,30.20,29.84,27,4,28,0.48
2013-1-29,46,36,32,46,35,31,99,97,95,30.05,29.44,16,4,16,0.69
2013-1-30,47,37,31,46,36,26,99,97,86,29.44,29.02,28,3,28,0.64
2013-1-31,30,21,17,26,15,12,86,77,64,29.87,29.14,33,9,33,0.05
2013-2-1,20,16,13,14,10,5,87,76,61,30.20,29.87,26,8,26,0.00
2013-2-2,22,13,7,10,8,2,90,79,56,30.18,30.04,17,3,19,0.03
2013-2-3,18,12,3,15,7,0,88,80,68,30.08,29.87,15,4,15,0.00
2013-2-4,21,14,9,13,9,5,88,80,59,30.07,29.94,14,3,14,0.00
2013-2-5,23,15,4,21,11,0,93,86,78,30.02,29.80,21,5,21,0.01
2013-2-6,27,18,7,23,13,4,91,81,70,30.33,30.02,14,4,14,0.00
2013-2-7,30,27,25,29,26,22,97,94,88,30.32,30.05,18,9,18,0.51
2013-2-8,29,24,15,28,21,12,97,90,81,30.40,30.00,18,3,18,0.25
2013-2-9,26,16,4,22,13,2,92,88,81,30.49,30.33,14,3,14,0.00
2013-2-10,34,26,16,33,24,14,96,90,82,30.33,29.68,16,7,16,0.26
2013-2-11,39,35,33,37,32,27,98,88,78,29.76,29.48,30,11,31,0.11
2013-2-12,33,29,26,27,23,19,84,77,70,30.00,29.76,23,7,23,0.00
2013-2-13,32,29,25,29,25,19,93,87,76,29.93,29.74,15,7,15,0.00
2013-2-14,35,32,28,34,30,26,98,95,90,29.78,29.63,21,4,21,0.03
2013-2-15,28,24,18,26,17,12,90,75,59,30.15,29.77,26,6,26,0.05
2013-2-16,22,16,8,18,12,4,90,82,68,30.15,30.05,7,1,7,0.04
2013-2-17,23,14,4,10,6,1,88,71,52,30.24,30.14,11,2,11,0.00
2013-2-18,35,25,14,33,21,7,92,82,73,30.24,29.59,22,12,23,0.01
2013-2-19,38,30,18,36,25,10,97,84,68,29.84,29.33,30,14,34,0.37
2013-2-20,24,17,13,12,9,5,84,70,56,30.29,29.83,25,7,25,0.00
2013-2-21,25,17,9,23,11,4,92,78,59,30.49,30.29,15,3,15,0.00
2013-2-22,29,26,22,29,25,20,97,93,87,30.38,29.88,24,9,24,0.05
2013-2-23,33,30,27,30,27,24,97,90,74,29.90,29.84,20,7,20,0.01
2013-2-24,39,30,22,28,25,20,95,80,61,30.17,29.88,12,3,12,0.05
2013-2-25,34,31,28,29,26,22,89,79,68,30.26,30.17,9,2,9,0.00
2013-2-26,36,32,22,32,28,21,95,84,77,30.23,29.72,38,6,38,0.00
2013-2-27,35,34,33,34,33,31,96,96,94,29.72,29.60,36,4,36,0.20
2013-2-28,36,32,28,33,29,22,96,89,77,30.04,29.62,25,3,25,0.18
2013-3-1,30,24,22,23,20,18,89,82,73,30.17,30.04,27,4,27,0.00
2013-3-2,25,22,17,20,18,13,88,83,78,30.16,30.10,11,3,11,0.00
2013-3-3,32,20,12,20,15,9,88,82,58,30.11,30.03,14,3,16,0.00
2013-3-4,27,20,11,22,16,8,91,84,68,30.19,30.11,13,3,13,0.00
2013-3-5,32,24,15,28,20,11,91,86,78,30.20,30.01,17,2,17,0.00
2013-3-6,41,34,31,32,30,28,92,84,69,30.25,30.03,14,2,14,0.00
2013-3-7,38,31,25,31,26,21,95,80,57,30.45,30.24,12,2,12,0.00
2013-3-8,32,29,24,31,26,21,97,91,84,30.53,30.45,8,2,8,0.00
2013-3-9,36,31,26,32,30,24,96,93,87,30.46,30.09,17,5,17,0.00
2013-3-10,45,38,34,41,35,32,94,90,83,30.11,29.84,12,1,12,0.03
2013-3-11,44,39,36,43,38,33,99,95,87,29.85,29.46,30,5,30,0.34
2013-3-12,36,32,29,34,28,24,92,85,69,29.88,29.56,23,9,23,0.04
2013-3-13,34,28,23,25,17,8,88,66,36,30.19,29.86,35,8,35,0.00
2013-3-14,39,30,22,26,19,15,80,67,41,30.26,30.03,20,4,21,0.00
2013-3-15,44,34,30,31,25,18,86,70,40,30.04,29.86,18,5,18,0.00
2013-3-16,30,25,21,24,20,16,92,83,63,30.08,29.89,12,2,12,0.12
2013-3-17,24,20,14,19,12,8,92,74,51,30.38,30.08,16,4,16,0.06
2013-3-18,33,28,21,30,24,14,97,85,68,30.31,29.55,29,11,29,0.12
2013-3-19,32,26,21,31,21,16,97,82,65,29.87,29.54,29,13,29,0.12
2013-3-20,28,22,16,18,15,11,91,74,56,29.92,29.86,20,6,21,0.00
2013-3-21,32,25,16,22,18,11,90,75,61,29.93,29.82,16,5,17,0.00
2013-3-22,35,30,24,27,22,17,80,74,69,30.06,29.93,16,4,17,0.00
2013-3-23,43,32,26,30,25,22,87,77,51,30.13,30.05,15,3,18,0.00
2013-3-24,37,31,25,28,25,22,89,78,58,30.11,29.82,14,2,14,0.00
2013-3-25,45,36,32,32,28,26,83,73,53,29.95,29.77,27,4,30,0.00
2013-3-26,48,38,32,31,28,23,87,70,43,30.10,29.95,14,4,14,0.00
2013-3-27,47,36,33,32,28,23,92,73,46,30.19,30.08,16,5,16,0.00
2013-3-28,50,37,30,34,30,26,88,75,47,30.28,30.19,12,3,12,0.00
2013-3-29,44,34,29,32,26,22,88,72,43,30.29,30.22,13,2,13,0.00
2013-3-30,41,34,24,34,29,21,88,82,71,30.25,29.90,11,2,13,0.00
2013-3-31,53,41,33,41,35,27,96,81,55,29.90,29.56,25,6,25,0.13
2013-4-1,33,29,23,28,17,11,79,62,42,30.12,29.70,36,11,37,0.00
2013-4-2,38,28,21,20,16,11,83,60,34,30.27,30.10,22,7,23,0.00
2013-4-3,43,31,20,31,17,11,84,59,33,30.44,30.27,18,5,18,0.00
2013-4-4,48,38,32,35,29,24,82,70,51,30.34,29.90,22,9,22,0.00
2013-4-5,44,34,28,33,24,15,85,67,32,30.26,30.00,20,4,21,0.00
2013-4-6,39,33,24,34,28,21,92,82,74,30.29,29.74,24,9,25,0.00
2013-4-7,49,42,39,46,35,31,94,78,67,30.08,29.51,31,7,31,0.02
2013-4-8,40,37,33,37,35,31,97,91,73,30.10,29.76,18,4,18,0.87
2013-4-9,39,37,36,39,36,35,98,97,96,30.14,29.99,8,2,10,0.48
2013-4-10,39,36,34,37,34,32,98,93,80,30.15,30.04,15,2,15,0.84
2013-4-11,37,33,31,32,29,27,95,84,72,30.14,29.82,23,4,24,0.74
2013-4-12,37,34,32,36,33,30,97,95,93,29.84,29.60,13,2,13,0.94
2013-4-13,41,36,33,34,31,26,93,83,64,29.97,29.71,23,8,23,0.00
2013-4-14,40,35,28,36,30,26,93,83,70,30.15,29.97,19,6,21,0.00
2013-4-15,55,43,36,54,40,32,98,89,83,30.03,29.84,13,4,14,0.22
2013-4-16,57,46,35,48,37,31,98,75,39,30.31,29.90,22,4,24,0.40
2013-4-17,46,38,32,38,33,29,94,83,63,30.44,30.13,21,3,21,0.24
2013-4-18,53,44,39,52,43,37,99,96,90,30.13,29.50,17,4,17,0.72
2013-4-19,50,42,35,50,38,23,99,84,61,29.67,29.28,43,16,43,0.29
2013-4-20,37,32,26,24,20,17,78,61,51,30.49,29.67,23,7,23,0.02
2013-4-21,41,33,21,36,27,18,89,77,62,30.70,30.49,23,6,23,0.00
2013-4-22,52,43,38,43,38,31,89,80,60,30.52,30.21,21,10,21,0.00
2013-4-23,49,44,35,46,41,33,97,88,74,30.22,29.81,14,3,15,0.31
2013-4-24,46,37,33,38,32,23,96,83,53,30.08,29.86,13,4,13,0.26
2013-4-25,47,41,36,39,32,23,92,70,44,30.34,30.04,20,8,24,0.05
2013-4-26,49,41,31,43,36,26,89,81,69,30.44,30.29,16,6,16,0.00
2013-4-27,56,49,45,49,44,42,90,83,72,30.31,30.13,16,6,16,0.00
2013-4-28,64,50,39,52,45,37,98,83,58,30.13,29.88,21,5,21,0.00
2013-4-29,56,51,48,53,50,47,99,95,87,29.92,29.86,11,3,11,0.04
2013-4-30,56,53,49,54,51,48,97,94,90,30.04,29.92,17,5,19,0.11
2013-5-1,68,59,53,62,55,50,94,86,71,30.22,30.03,10,4,10,0.00
2013-5-2,70,60,48,57,52,43,89,77,47,30.28,30.12,22,6,22,0.00
2013-5-3,67,58,50,55,49,44,84,72,58,30.16,30.09,18,6,19,0.00
2013-5-4,65,56,46,55,45,36,88,68,37,30.17,30.11,16,3,16,0.00
2013-5-5,69,55,43,53,44,38,91,69,37,30.17,30.07,13,3,13,0.00
2013-5-6,68,56,46,52,39,17,82,59,14,30.11,30.02,16,3,16,0.00
2013-5-7,72,56,41,51,41,32,87,60,25,30.12,30.03,14,3,14,0.00
2013-5-8,71,59,48,55,44,37,82,58,32,30.07,29.96,18,2,18,0.00
2013-5-9,66,57,47,54,48,44,91,74,53,29.99,29.91,12,2,13,0.00
2013-5-10,54,42,39,49,39,37,96,91,69,29.97,29.89,20,3,20,0.80
2013-5-11,54,42,38,51,39,34,96,89,77,29.93,29.66,26,7,26,0.19
2013-5-12,42,39,35,36,30,24,90,72,54,30.08,29.75,32,10,37,0.01
2013-5-13,53,42,30,41,29,22,88,62,35,30.16,30.07,15,4,16,0.00
2013-5-14,53,47,38,46,42,32,90,83,64,30.09,29.74,23,7,23,0.09
2013-5-15,77,63,48,52,45,36,93,58,26,29.76,29.50,25,6,25,0.00
2013-5-16,71,56,44,48,43,39,88,63,31,30.09,29.74,16,4,18,0.00
2013-5-17,56,51,43,45,42,37,96,72,55,30.25,30.08,13,3,14,0.02
2013-5-18,63,54,48,48,44,42,90,71,51,30.24,30.09,13,1,13,0.01
2013-5-19,66,57,48,58,51,43,89,80,69,30.09,29.87,10,2,10,0.00
2013-5-20,76,62,54,67,59,52,97,89,69,29.92,29.71,41,2,41,0.37
2013-5-21,65,61,56,63,59,55,99,94,88,29.79,29.68,22,3,22,0.23
2013-5-22,64,58,53,62,58,52,99,97,93,29.73,29.60,17,1,17,2.15
2013-5-23,53,48,42,52,44,38,98,89,62,30.20,29.67,14,2,15,0.16
2013-5-24,50,43,37,41,35,31,90,76,58,30.39,30.20,23,4,23,0.00
2013-5-25,53,45,36,44,38,34,94,78,52,30.46,30.33,19,5,19,0.00
2013-5-26,57,49,40,45,39,34,91,71,48,30.39,30.28,17,4,17,0.00
2013-5-27,62,50,36,47,41,35,97,72,47,30.29,30.07,17,5,17,0.00
2013-5-28,61,54,49,60,52,44,99,94,70,30.07,29.78,15,3,15,0.50
2013-5-29,79,63,57,67,60,55,99,91,60,29.95,29.76,23,4,23,0.52
2013-5-30,71,63,56,69,61,54,98,94,87,30.00,29.92,23,4,23,0.23
2013-5-31,72,65,63,65,63,61,96,92,78,29.93,29.80,15,6,15,0.00
2013-6-1,69,65,62,64,63,62,98,92,84,29.81,29.62,17,7,17,0.00
2013-6-2,66,58,47,64,53,40,98,82,64,30.00,29.55,22,7,22,0.05
2013-6-3,70,51,38,46,41,36,93,71,35,30.11,29.98,25,4,25,0.00
2013-6-4,59,51,40,48,42,37,94,74,46,30.23,30.11,12,3,13,0.00
2013-6-5,61,54,51,49,45,40,86,73,47,30.26,30.09,15,2,15,0.00
2013-6-6,64,56,50,49,45,40,89,67,49,30.10,29.96,15,2,15,0.00
2013-6-7,64,56,46,53,49,44,95,80,65,29.97,29.91,13,1,13,0.00
2013-6-8,62,56,48,58,53,47,97,92,80,30.09,29.92,8,1,8,0.19
2013-6-9,68,58,47,58,53,46,99,83,62,30.16,30.02,15,3,16,0.00
2013-6-10,61,58,56,59,56,51,97,91,77,30.02,29.78,13,1,14,0.02
2013-6-11,69,60,57,63,59,56,97,94,78,29.88,29.80,11,2,11,0.05
2013-6-12,67,59,54,62,58,53,99,95,86,29.92,29.70,10,2,10,0.00
2013-6-13,80,67,57,61,57,54,98,73,45,29.93,29.68,11,2,11,0.03
2013-6-14,66,58,50,56,49,45,89,72,49,30.09,29.93,16,4,16,0.00
2013-6-15,68,59,47,62,54,45,95,85,57,30.07,29.86,8,2,8,0.00
2013-6-16,82,69,61,67,61,51,98,80,37,29.86,29.72,25,4,25,0.14
2013-6-17,67,61,53,59,55,50,91,81,71,30.00,29.79,18,3,18,0.00
2013-6-18,67,59,48,53,46,37,94,67,39,30.12,29.98,17,2,17,0.00
2013-6-19,67,57,44,54,48,42,96,74,43,30.22,30.11,14,4,14,0.00
2013-6-20,70,64,52,63,58,49,90,80,72,30.21,30.14,13,5,13,0.00
2013-6-21,74,69,61,68,64,58,95,85,68,30.19,29.99,12,3,12,0.00
2013-6-22,75,69,60,69,64,58,93,85,76,30.04,29.93,18,4,18,0.00
2013-6-23,86,70,58,72,66,57,98,87,64,30.03,29.88,15,4,20,0.00
2013-6-24,81,74,70,72,69,67,93,86,64,29.96,29.83,12,5,15,0.00
2013-6-25,81,73,68,70,67,63,92,82,65,29.86,29.76,18,5,19,0.00
2013-6-26,78,72,64,72,68,62,97,87,76,29.81,29.73,12,3,12,0.00
2013-6-27,75,69,64,70,66,62,97,91,82,29.74,29.62,13,2,13,0.50
2013-6-28,71,65,62,68,63,61,98,93,84,29.63,29.53,8,0,8,0.24
2013-6-29,74,66,59,63,60,56,98,83,54,29.75,29.56,12,1,12,0.00
2013-6-30,78,68,58,60,53,36,91,61,26,30.00,29.74,11,1,11,0.00
2013-7-1,71,62,56,58,50,42,82,64,43,30.15,30.00,12,1,12,0.00
2013-7-2,75,64,56,57,51,43,81,64,33,30.13,30.07,11,1,12,0.00
2013-7-3,73,64,54,66,58,51,94,82,68,30.13,30.03,14,3,16,0.00
2013-7-4,73,69,63,68,65,61,97,88,76,30.09,30.03,16,4,16,0.00
2013-7-5,75,71,64,71,66,61,91,86,80,30.08,29.99,13,4,13,0.00
2013-7-6,79,73,67,73,69,64,93,87,80,30.07,29.93,12,5,13,0.00
2013-7-7,76,74,70,73,70,66,96,90,79,29.97,29.89,15,4,15,0.00
2013-7-8,75,72,70,72,70,69,98,93,84,29.96,29.90,19,5,19,0.64
2013-7-9,75,72,69,73,70,68,98,95,90,29.94,29.77,9,2,9,0.00
2013-7-10,80,74,62,73,65,55,96,74,51,29.91,29.68,22,5,24,0.00
2013-7-11,74,64,57,60,56,53,89,75,59,30.09,29.90,18,2,19,0.00
2013-7-12,72,62,52,60,56,51,96,81,53,30.21,30.09,13,3,13,0.00
2013-7-13,76,66,54,69,61,53,98,85,63,30.23,30.16,14,3,14,0.00
2013-7-14,77,70,60,72,66,59,97,88,75,30.27,30.20,10,3,10,0.00
2013-7-15,82,75,67,77,71,66,97,88,76,30.27,30.19,10,2,11,0.00
2013-7-16,83,79,73,78,75,71,97,90,80,30.25,30.14,12,2,12,0.00
2013-7-17,96,84,75,76,73,69,93,71,44,30.18,30.03,16,4,17,0.00
2013-7-18,84,78,72,77,74,68,95,87,69,30.08,29.81,17,5,17,0.11
2013-7-19,90,81,70,76,73,68,95,78,57,29.81,29.57,34,10,34,0.07
2013-7-20,86,70,61,69,62,51,96,75,43,29.95,29.67,15,3,17,0.01
2013-7-21,70,63,53,62,57,50,93,80,70,30.02,29.94,16,3,17,0.00
2013-7-22,76,71,65,72,67,59,92,86,76,29.97,29.69,9,4,13,0.00
2013-7-23,77,70,59,69,60,48,94,74,46,29.89,29.58,20,5,20,0.00
2013-7-24,70,60,50,56,50,46,88,71,53,30.07,29.88,13,3,14,0.00
2013-7-25,71,64,49,64,57,47,96,80,66,30.12,30.04,18,7,18,0.00
2013-7-26,72,68,63,66,63,58,94,85,75,30.06,29.88,17,7,17,0.33
2013-7-27,71,66,58,67,63,57,97,91,84,29.88,29.70,23,4,23,0.94
2013-7-28,64,59,54,59,55,52,97,87,73,29.92,29.75,16,6,16,0.38
2013-7-29,69,61,54,59,56,53,97,84,65,30.17,29.92,13,3,13,0.01
2013-7-30,71,63,54,63,58,52,96,82,59,30.23,30.13,11,3,12,0.00
2013-7-31,68,66,63,65,63,61,95,90,84,30.13,29.87,15,6,15,0.01
2013-8-1,76,66,58,65,60,56,95,82,59,29.90,29.82,15,3,15,0.05
2013-8-2,71,63,57,67,59,53,95,88,80,29.89,29.78,21,2,22,0.27
2013-8-3,76,64,53,59,56,52,98,76,50,30.06,29.89,17,2,17,0.00
2013-8-4,69,62,53,58,54,49,93,76,52,30.18,30.06,17,3,17,0.00
2013-8-5,69,63,51,61,56,50,95,79,61,30.11,29.95,23,6,23,0.00
2013-8-6,70,68,65,68,64,57,94,89,76,29.95,29.83,17,8,18,0.00
2013-8-7,82,72,64,68,65,62,98,81,55,29.91,29.72,33,6,35,0.18
2013-8-8,70,63,55,63,58,53,94,84,66,30.03,29.91,13,3,16,0.00
2013-8-9,79,66,53,65,57,52,95,75,50,30.01,29.87,20,4,20,0.00
2013-8-10,72,62,50,61,53,48,94,74,43,30.15,30.01,14,3,14,0.00
2013-8-11,72,63,51,64,57,50,94,81,68,30.13,30.02,12,3,13,0.00
2013-8-12,72,66,59,68,61,56,94,85,71,30.04,29.79,15,4,15,0.02
2013-8-13,67,59,52,61,49,44,95,71,49,30.07,29.85,14,3,14,0.04
2013-8-14,73,61,49,56,50,47,94,72,43,30.16,30.06,19,3,19,0.00
2013-8-15,69,60,48,64,54,45,90,81,61,30.14,30.04,17,6,19,0.00
2013-8-16,71,63,53,64,57,49,92,80,68,30.21,30.09,11,3,11,0.00
2013-8-17,74,65,53,67,61,51,97,86,73,30.28,30.18,12,5,12,0.00
2013-8-18,74,68,55,67,63,53,96,84,71,30.22,30.08,12,4,12,0.00
2013-8-19,74,68,56,69,62,54,94,82,63,30.10,29.97,17,5,18,0.00
2013-8-20,77,71,63,70,65,58,88,81,66,30.08,30.00,14,5,14,0.00
2013-8-21,78,73,68,72,68,63,91,83,72,30.07,29.89,18,7,18,0.00
2013-8-22,82,73,62,71,66,53,90,78,60,30.06,29.88,14,3,15,0.00
2013-8-23,72,64,57,64,57,50,91,78,67,30.22,30.06,18,3,19,0.01
2013-8-24,75,65,53,68,60,52,98,85,71,30.32,30.22,18,6,18,0.00
2013-8-25,82,72,64,71,67,60,92,82,67,30.26,30.00,19,9,19,0.00
2013-8-26,83,76,71,74,70,67,91,82,70,30.04,29.87,18,6,18,0.02
2013-8-27,76,71,67,72,69,65,98,94,85,29.92,29.83,10,2,11,0.75
2013-8-28,83,74,68,73,70,66,99,88,65,30.00,29.81,13,1,13,0.09
2013-8-29,77,71,62,72,68,61,98,90,77,30.07,29.95,10,2,10,0.00
2013-8-30,81,74,70,75,71,67,94,90,77,29.96,29.67,16,5,16,0.12
2013-8-31,72,68,62,67,65,60,96,91,81,29.86,29.76,14,2,14,0.01
2013-9-1,73,68,60,70,65,59,98,91,81,29.86,29.69,14,3,14,0.00
2013-9-2,72,62,56,69,57,51,95,82,68,29.89,29.69,16,4,17,0.00
2013-9-3,79,64,54,54,51,45,87,64,32,29.97,29.88,15,3,15,0.00
2013-9-4,76,62,54,64,56,50,94,83,63,30.12,29.95,15,2,15,0.00
2013-9-5,65,55,46,52,47,43,93,77,49,30.29,30.11,18,3,21,0.00
2013-9-6,69,59,45,64,54,44,96,84,64,30.28,30.02,19,7,19,0.00
2013-9-7,73,67,62,70,64,58,98,91,77,30.02,29.83,13,4,13,0.31
2013-9-8,66,62,54,65,56,50,98,80,66,30.15,29.93,18,3,18,0.00
2013-9-9,69,64,51,68,60,48,98,87,73,30.09,29.81,14,6,15,0.00
2013-9-10,88,76,69,72,70,67,96,81,51,29.88,29.78,25,7,25,0.00
2013-9-11,80,72,67,70,67,63,95,84,64,29.96,29.86,14,3,15,0.01
2013-9-12,76,66,55,63,56,45,94,72,45,29.97,29.81,21,3,21,0.00
2013-9-13,63,53,42,48,43,38,86,72,42,30.15,29.97,14,2,14,0.00
2013-9-14,67,54,39,53,44,34,92,71,48,30.19,30.05,20,5,20,0.00
2013-9-15,60,57,54,56,52,44,95,83,59,30.12,30.01,15,4,15,0.10
2013-9-16,59,51,40,54,44,39,95,80,55,30.43,30.12,14,2,14,0.00
2013-9-17,62,50,36,57,46,35,98,85,71,30.46,30.23,17,3,17,0.00
2013-9-18,67,60,44,63,55,42,95,85,72,30.24,30.00,17,4,17,0.00
2013-9-19,70,66,62,66,63,59,96,91,84,30.02,29.84,15,5,15,0.02
2013-9-20,73,68,66,68,66,64,97,93,81,29.85,29.66,19,7,20,0.24
2013-9-21,66,59,47,64,52,43,94,80,61,29.88,29.64,20,3,21,0.00
2013-9-22,57,48,41,44,41,39,94,78,55,30.14,29.88,12,1,12,0.00
2013-9-23,59,51,42,50,44,40,95,79,62,30.23,30.13,8,1,8,0.00
2013-9-24,61,50,39,53,46,38,98,85,65,30.20,30.04,14,3,15,0.00
2013-9-25,66,55,44,56,51,42,97,86,65,30.06,30.01,18,4,18,0.00
2013-9-26,68,56,46,58,51,45,98,85,57,30.17,30.04,14,2,14,0.02
2013-9-27,68,58,44,63,55,43,98,89,64,30.26,30.16,13,2,13,0.01
2013-9-28,69,64,58,63,60,56,96,88,78,30.21,29.97,20,8,20,0.00
2013-9-29,68,60,49,61,57,48,96,89,68,30.01,29.88,18,5,19,0.53
2013-9-30,64,56,46,60,52,45,98,89,70,30.03,29.91,14,4,14,0.01
2013-10-1,72,64,53,63,59,51,93,85,70,29.94,29.79,27,9,27,0.00
2013-10-2,76,64,53,62,50,38,93,67,27,30.07,29.85,18,3,20,0.00
2013-10-3,71,63,50,62,58,49,97,82,71,30.08,29.89,18,5,18,0.09
2013-10-4,62,60,58,62,59,57,98,97,95,30.07,29.90,6,0,6,0.32
2013-10-5,63,61,58,63,60,57,99,97,94,30.08,29.86,22,3,22,0.44
2013-10-6,66,63,56,65,62,54,99,97,92,29.86,29.59,23,8,23,0.98
2013-10-7,61,54,45,54,49,44,95,85,56,30.09,29.60,20,6,20,0.00
2013-10-8,63,53,40,57,49,39,97,87,73,30.29,30.09,19,5,20,0.00
2013-10-9,65,58,46,58,53,44,98,83,71,30.34,30.22,20,4,20,0.00
2013-10-10,64,55,42,59,52,41,97,89,77,30.26,30.15,13,2,13,0.00
2013-10-11,66,54,43,60,49,39,98,86,39,30.19,30.10,15,3,15,0.01
2013-10-12,68,60,44,62,56,43,98,85,76,30.12,30.00,14,4,15,0.00
2013-10-13,65,58,50,61,50,46,92,75,55,30.36,30.02,12,3,12,0.00
2013-10-14,61,50,41,47,43,38,92,78,56,30.44,30.30,17,3,18,0.00
2013-10-15,61,52,39,59,49,37,98,91,79,30.31,29.78,21,7,21,0.27
2013-10-16,60,55,51,59,52,47,96,89,82,29.86,29.74,27,10,27,0.05
2013-10-17,53,49,45,48,46,42,97,88,70,29.89,29.75,7,1,8,0.29
2013-10-18,57,48,39,50,44,38,97,88,68,29.86,29.78,20,5,22,0.09
2013-10-19,50,47,42,46,43,36,93,87,69,29.85,29.70,17,6,17,0.07
2013-10-20,53,45,35,48,40,34,98,84,67,29.88,29.76,17,6,17,0.04
2013-10-21,54,50,40,50,43,32,91,79,61,29.81,29.73,27,11,27,0.05
2013-10-22,48,40,34,39,34,27,93,79,63,29.89,29.77,29,8,29,0.01
2013-10-23,45,36,29,34,31,27,94,82,51,29.91,29.84,19,3,19,0.00
2013-10-24,48,38,31,40,33,29,95,86,66,30.15,29.90,18,4,19,0.03
2013-10-25,46,40,31,37,33,30,95,79,56,30.29,29.96,27,7,27,0.00
2013-10-26,50,43,36,41,38,33,91,81,57,29.97,29.70,27,10,29,0.10
2013-10-27,47,41,33,42,35,30,93,80,55,30.03,29.94,18,5,18,0.00
2013-10-28,46,39,29,37,31,25,89,73,55,30.50,30.01,14,2,14,0.00
2013-10-29,43,35,26,38,30,23,90,80,63,30.53,30.29,9,1,9,0.00
2013-10-30,50,43,36,46,40,34,94,89,80,30.29,29.96,8,1,9,0.00
2013-10-31,52,50,48,51,49,46,99,97,90,29.96,29.04,11,3,11,0.81
2013-11-1,57,49,45,56,48,44,99,93,85,29.65,28.94,35,10,36,0.25
2013-11-2,46,41,35,44,37,30,97,88,73,30.16,29.65,11,1,11,0.04
2013-11-3,42,38,32,36,33,30,92,82,69,30.50,30.16,19,5,19,0.00
2013-11-4,45,42,40,39,36,33,86,77,68,30.53,30.30,28,17,28,0.00
2013-11-5,49,47,44,46,44,38,95,90,80,30.33,30.14,15,4,15,0.00
2013-11-6,52,47,38,52,45,35,98,94,86,30.14,29.67,21,8,22,0.40
2013-11-7,39,37,35,35,32,29,90,80,72,30.11,29.98,19,4,19,0.00
2013-11-8,43,37,33,34,31,26,93,78,54,30.26,30.10,17,4,17,0.00
2013-11-9,48,44,41,43,39,34,89,82,77,30.18,29.71,29,12,29,0.04
2013-11-10,47,41,38,36,33,28,85,73,55,30.25,29.84,38,9,40,0.02
2013-11-11,40,34,25,37,28,18,95,80,61,30.36,30.02,26,8,31,0.11
2013-11-12,33,28,24,23,19,15,85,71,50,30.54,30.36,21,6,21,0.00
2013-11-13,42,32,22,30,24,18,89,73,48,30.53,30.03,32,13,32,0.00
2013-11-14,43,39,34,37,33,29,85,78,69,30.04,29.90,26,12,26,0.00
2013-11-15,44,41,40,39,36,33,86,82,75,30.05,29.94,12,6,15,0.04
2013-11-16,46,43,40,44,40,35,96,90,82,30.09,29.75,17,7,17,0.01
2013-11-17,52,47,45,51,46,44,99,97,89,29.77,29.06,28,9,28,0.75
2013-11-18,48,39,34,45,31,24,90,75,63,30.11,29.21,41,11,41,0.01
2013-11-19,39,34,30,30,25,21,85,69,52,30.46,30.11,15,5,19,0.00
2013-11-20,41,38,35,36,33,28,88,82,73,30.48,30.29,24,13,24,0.00
2013-11-21,44,41,38,40,38,34,93,88,77,30.31,30.20,19,4,19,0.03
2013-11-22,42,35,26,40,32,22,96,89,72,30.37,30.16,16,3,17,0.06
2013-11-23,30,22,14,26,13,2,90,68,45,30.52,30.24,26,7,26,0.00
2013-11-24,25,19,11,20,11,8,87,74,55,30.61,30.36,28,6,31,0.00
2013-11-25,32,28,25,30,23,17,95,82,66,30.36,29.99,30,17,31,0.00
2013-11-26,33,31,24,31,29,20,95,91,85,30.07,29.95,17,8,17,0.00
2013-11-27,24,20,16,20,13,10,85,74,63,30.21,29.97,18,5,18,0.03
2013-11-28,25,20,15,22,16,10,92,82,70,30.49,30.21,9,2,9,0.14
2013-11-29,32,22,12,26,19,9,94,87,74,30.69,30.49,21,5,22,0.00
2013-11-30,37,33,30,34,30,26,91,86,82,30.61,30.09,24,11,24,0.00
2013-12-1,37,34,31,34,31,26,95,90,84,30.09,30.04,13,1,13,0.00
2013-12-2,34,32,30,29,27,26,87,81,73,30.06,29.94,14,1,14,0.00
2013-12-3,34,30,24,32,28,21,97,90,79,30.01,29.95,18,2,18,0.23
2013-12-4,42,37,32,41,36,32,98,97,95,29.97,29.58,22,4,22,0.38
2013-12-5,46,36,26,44,30,17,99,77,56,30.12,29.55,30,11,30,0.00
2013-12-6,26,22,17,18,13,10,78,70,59,30.41,30.11,22,5,22,0.00
2013-12-7,23,19,13,14,9,6,79,67,54,30.65,30.41,20,6,20,0.00
2013-12-8,28,18,9,27,14,5,94,82,64,30.64,30.09,24,6,24,0.01
2013-12-9,30,26,14,29,22,6,96,85,64,30.09,29.81,38,13,38,0.17
2013-12-10,19,14,7,15,8,2,91,79,68,30.16,29.88,27,10,27,0.00
2013-12-11,19,13,6,11,6,1,86,73,54,30.42,30.16,23,7,23,0.00
2013-12-12,19,12,4,15,7,1,86,81,73,30.43,30.13,24,9,24,0.00
2013-12-13,21,17,11,15,10,4,86,73,62,30.43,30.12,14,3,14,0.00
2013-12-14,23,19,12,21,16,6,93,89,79,30.43,29.90,24,3,24,0.27
2013-12-15,24,19,10,20,15,6,93,85,68,29.98,29.73,23,5,23,0.00
2013-12-16,19,11,3,14,6,-1,90,79,60,30.22,29.98,21,4,21,0.01
2013-12-17,24,20,16,21,17,14,93,91,85,30.08,29.87,22,6,22,0.09
2013-12-18,29,24,20,24,21,18,93,86,73,30.08,29.86,29,8,29,0.00
2013-12-19,32,26,18,27,21,14,87,82,77,30.08,29.84,10,2,14,0.00
2013-12-20,31,29,26,30,28,23,96,94,85,30.01,29.81,10,2,10,0.32
2013-12-21,31,29,27,29,27,25,94,91,87,29.98,29.80,30,3,30,0.02
2013-12-22,30,26,21,28,24,19,96,93,88,30.05,29.71,20,3,20,0.38
2013-12-23,22,18,6,19,14,3,91,84,72,30.36,30.04,10,2,11,0.01
2013-12-24,18,7,-4,8,2,-7,89,80,63,30.57,30.35,22,3,22,0.00
2013-12-25,24,18,-2,22,16,-5,96,92,85,30.55,30.11,28,14,28,0.00
2013-12-26,26,23,19,23,20,14,95,86,71,30.27,30.03,18,6,18,0.15
2013-12-27,34,24,16,31,22,14,96,90,78,30.32,29.97,17,6,17,0.00
2013-12-28,36,34,32,32,31,29,94,90,85,30.07,29.83,15,5,15,0.00
2013-12-29,35,25,9,32,21,3,95,85,73,30.08,29.73,28,4,28,0.00
2013-12-30,16,10,1,9,4,-3,88,76,61,30.31,30.07,14,4,14,0.00
2013-12-31,15,11,5,10,5,-1,89,75,60,30.38,30.06,28,7,28,0.00
2014-1-1,14,8,0,8,3,-4,87,81,72,30.50,30.38,16,3,18,0.00
2014-1-2,11,8,-1,8,4,-5,88,83,72,30.42,30.27,33,4,33,0.05